sensor_id;sensor_type;location;lat;lon;timestamp;P1;durP1;ratioP1;P2;durP2;ratioP2
40931;SDS011;36257;46.052;12.540;2023-09-19T00:00:20;11.25;;;5.70;;
40931;SDS011;36257;46.052;12.540;2023-09-19T00:02:54;11.90;;;5.38;;
40931;SDS011;36257;46.052;12.540;2023-09-19T00:05:26;6.85;;;5.45;;
40931;SDS011;36257;46.052;12.540;2023-09-19T00:10:21;8.07;;;5.60;;
40931;SDS011;36257;46.052;12.540;2023-09-19T00:12:49;12.75;;;5.97;;
40931;SDS011;36257;46.052;12.540;2023-09-19T00:15:24;10.32;;;6.40;;
40931;SDS011;36257;46.052;12.540;2023-09-19T00:17:54;8.27;;;5.82;;
40931;SDS011;36257;46.052;12.540;2023-09-19T00:20:20;9.70;;;4.95;;
40931;SDS011;36257;46.052;12.540;2023-09-19T00:22:49;14.98;;;5.75;;
40931;SDS011;36257;46.052;12.540;2023-09-19T00:25:18;10.68;;;5.53;;
40931;SDS011;36257;46.052;12.540;2023-09-19T00:27:45;12.50;;;6.53;;
40931;SDS011;36257;46.052;12.540;2023-09-19T00:30:12;14.10;;;6.20;;
40931;SDS011;36257;46.052;12.540;2023-09-19T00:32:44;13.77;;;5.82;;
40931;SDS011;36257;46.052;12.540;2023-09-19T00:35:12;11.05;;;5.82;;
40931;SDS011;36257;46.052;12.540;2023-09-19T00:37:41;10.02;;;5.32;;
40931;SDS011;36257;46.052;12.540;2023-09-19T00:40:08;12.40;;;5.78;;
40931;SDS011;36257;46.052;12.540;2023-09-19T00:42:41;7.97;;;4.97;;
40931;SDS011;36257;46.052;12.540;2023-09-19T00:45:07;12.27;;;5.93;;
40931;SDS011;36257;46.052;12.540;2023-09-19T00:47:40;14.23;;;6.43;;
40931;SDS011;36257;46.052;12.540;2023-09-19T00:50:09;9.00;;;5.50;;
40931;SDS011;36257;46.052;12.540;2023-09-19T00:52:38;9.73;;;5.45;;
40931;SDS011;36257;46.052;12.540;2023-09-19T00:55:06;10.45;;;6.03;;
40931;SDS011;36257;46.052;12.540;2023-09-19T00:57:33;14.63;;;5.30;;
40931;SDS011;36257;46.052;12.540;2023-09-19T01:00:00;11.13;;;5.68;;
40931;SDS011;36257;46.052;12.540;2023-09-19T01:02:31;15.20;;;6.30;;
40931;SDS011;36257;46.052;12.540;2023-09-19T01:04:57;8.80;;;5.35;;
40931;SDS011;36257;46.052;12.540;2023-09-19T01:07:24;10.32;;;5.35;;
40931;SDS011;36257;46.052;12.540;2023-09-19T01:09:50;11.85;;;6.25;;
40931;SDS011;36257;46.052;12.540;2023-09-19T01:12:21;11.38;;;5.78;;
40931;SDS011;36257;46.052;12.540;2023-09-19T01:15:03;7.03;;;5.25;;
40931;SDS011;36257;46.052;12.540;2023-09-19T01:17:46;8.52;;;5.45;;
40931;SDS011;36257;46.052;12.540;2023-09-19T01:20:37;14.32;;;5.97;;
40931;SDS011;36257;46.052;12.540;2023-09-19T01:28:54;10.52;;;5.22;;
40931;SDS011;36257;46.052;12.540;2023-09-19T01:31:27;13.68;;;5.82;;
40931;SDS011;36257;46.052;12.540;2023-09-19T01:33:59;8.93;;;5.40;;
40931;SDS011;36257;46.052;12.540;2023-09-19T01:36:26;9.80;;;5.50;;
40931;SDS011;36257;46.052;12.540;2023-09-19T01:38:54;11.60;;;4.65;;
40931;SDS011;36257;46.052;12.540;2023-09-19T01:43:51;8.13;;;4.43;;
40931;SDS011;36257;46.052;12.540;2023-09-19T01:46:36;9.20;;;5.30;;
40931;SDS011;36257;46.052;12.540;2023-09-19T01:52:23;13.73;;;5.00;;
40931;SDS011;36257;46.052;12.540;2023-09-19T01:54:32;12.48;;;5.25;;
40931;SDS011;36257;46.052;12.540;2023-09-19T01:57:27;8.60;;;4.95;;
40931;SDS011;36257;46.052;12.540;2023-09-19T01:59:59;8.93;;;5.28;;
40931;SDS011;36257;46.052;12.540;2023-09-19T02:02:36;10.70;;;5.15;;
40931;SDS011;36257;46.052;12.540;2023-09-19T02:05:03;16.92;;;6.07;;
40931;SDS011;36257;46.052;12.540;2023-09-19T02:07:30;11.77;;;5.35;;
40931;SDS011;36257;46.052;12.540;2023-09-19T02:09:59;13.45;;;6.03;;
40931;SDS011;36257;46.052;12.540;2023-09-19T02:12:31;10.43;;;5.88;;
40931;SDS011;36257;46.052;12.540;2023-09-19T02:14:58;13.90;;;7.00;;
40931;SDS011;36257;46.052;12.540;2023-09-19T02:17:24;9.80;;;6.10;;
40931;SDS011;36257;46.052;12.540;2023-09-19T02:19:53;9.45;;;5.10;;
40931;SDS011;36257;46.052;12.540;2023-09-19T02:22:20;10.13;;;4.90;;
40931;SDS011;36257;46.052;12.540;2023-09-19T02:24:46;17.48;;;6.18;;
40931;SDS011;36257;46.052;12.540;2023-09-19T02:27:13;11.63;;;5.03;;
40931;SDS011;36257;46.052;12.540;2023-09-19T02:32:06;9.38;;;5.45;;
40931;SDS011;36257;46.052;12.540;2023-09-19T02:34:32;6.03;;;5.30;;
40931;SDS011;36257;46.052;12.540;2023-09-19T02:37:01;9.55;;;4.75;;
40931;SDS011;36257;46.052;12.540;2023-09-19T02:39:33;6.13;;;4.45;;
40931;SDS011;36257;46.052;12.540;2023-09-19T02:41:59;9.95;;;5.15;;
40931;SDS011;36257;46.052;12.540;2023-09-19T02:44:25;6.95;;;4.03;;
40931;SDS011;36257;46.052;12.540;2023-09-19T02:46:51;9.48;;;5.10;;
40931;SDS011;36257;46.052;12.540;2023-09-19T02:49:17;7.43;;;4.35;;
40931;SDS011;36257;46.052;12.540;2023-09-19T02:51:43;6.53;;;4.63;;
40931;SDS011;36257;46.052;12.540;2023-09-19T02:54:09;12.65;;;4.97;;
40931;SDS011;36257;46.052;12.540;2023-09-19T02:56:35;10.57;;;4.30;;
40931;SDS011;36257;46.052;12.540;2023-09-19T02:59:02;11.45;;;5.53;;
40931;SDS011;36257;46.052;12.540;2023-09-19T03:01:28;13.75;;;5.28;;
40931;SDS011;36257;46.052;12.540;2023-09-19T03:03:54;13.13;;;5.15;;
40931;SDS011;36257;46.052;12.540;2023-09-19T03:06:20;9.10;;;4.90;;
40931;SDS011;36257;46.052;12.540;2023-09-19T03:08:46;7.13;;;4.80;;
40931;SDS011;36257;46.052;12.540;2023-09-19T03:11:14;13.73;;;5.03;;
40931;SDS011;36257;46.052;12.540;2023-09-19T03:13:41;6.15;;;4.78;;
40931;SDS011;36257;46.052;12.540;2023-09-19T03:16:07;7.22;;;4.40;;
40931;SDS011;36257;46.052;12.540;2023-09-19T03:18:34;13.15;;;4.80;;
40931;SDS011;36257;46.052;12.540;2023-09-19T03:21:00;10.50;;;5.13;;
40931;SDS011;36257;46.052;12.540;2023-09-19T03:23:26;12.90;;;4.60;;
40931;SDS011;36257;46.052;12.540;2023-09-19T03:25:52;9.55;;;4.40;;
40931;SDS011;36257;46.052;12.540;2023-09-19T03:28:18;13.15;;;4.68;;
40931;SDS011;36257;46.052;12.540;2023-09-19T03:30:46;9.60;;;4.50;;
40931;SDS011;36257;46.052;12.540;2023-09-19T03:33:11;12.63;;;4.28;;
40931;SDS011;36257;46.052;12.540;2023-09-19T03:35:38;7.25;;;3.67;;
40931;SDS011;36257;46.052;12.540;2023-09-19T03:38:04;7.53;;;4.03;;
40931;SDS011;36257;46.052;12.540;2023-09-19T03:40:30;9.40;;;4.10;;
40931;SDS011;36257;46.052;12.540;2023-09-19T03:42:56;11.98;;;4.57;;
40931;SDS011;36257;46.052;12.540;2023-09-19T03:45:25;7.93;;;4.07;;
40931;SDS011;36257;46.052;12.540;2023-09-19T03:47:50;8.27;;;5.00;;
40931;SDS011;36257;46.052;12.540;2023-09-19T03:50:16;9.35;;;4.70;;
40931;SDS011;36257;46.052;12.540;2023-09-19T03:52:45;5.50;;;3.97;;
40931;SDS011;36257;46.052;12.540;2023-09-19T03:55:11;7.60;;;4.10;;
40931;SDS011;36257;46.052;12.540;2023-09-19T03:57:37;8.38;;;3.90;;
40931;SDS011;36257;46.052;12.540;2023-09-19T04:00:03;8.85;;;3.88;;
40931;SDS011;36257;46.052;12.540;2023-09-19T04:02:30;7.07;;;3.55;;
40931;SDS011;36257;46.052;12.540;2023-09-19T04:07:24;6.75;;;3.80;;
40931;SDS011;36257;46.052;12.540;2023-09-19T04:09:53;5.32;;;2.85;;
40931;SDS011;36257;46.052;12.540;2023-09-19T04:12:20;7.03;;;3.28;;
40931;SDS011;36257;46.052;12.540;2023-09-19T04:14:45;8.10;;;2.97;;
40931;SDS011;36257;46.052;12.540;2023-09-19T04:17:11;7.20;;;2.97;;
40931;SDS011;36257;46.052;12.540;2023-09-19T04:19:37;7.18;;;3.55;;
40931;SDS011;36257;46.052;12.540;2023-09-19T04:22:03;10.10;;;3.10;;
40931;SDS011;36257;46.052;12.540;2023-09-19T04:24:29;8.48;;;3.47;;
40931;SDS011;36257;46.052;12.540;2023-09-19T04:26:57;4.70;;;3.50;;
40931;SDS011;36257;46.052;12.540;2023-09-19T04:29:24;6.75;;;3.10;;
40931;SDS011;36257;46.052;12.540;2023-09-19T04:31:51;7.30;;;3.42;;
40931;SDS011;36257;46.052;12.540;2023-09-19T04:34:17;6.80;;;3.53;;
40931;SDS011;36257;46.052;12.540;2023-09-19T04:36:43;6.22;;;3.05;;
40931;SDS011;36257;46.052;12.540;2023-09-19T04:39:09;7.95;;;3.67;;
40931;SDS011;36257;46.052;12.540;2023-09-19T04:41:36;7.18;;;3.00;;
40931;SDS011;36257;46.052;12.540;2023-09-19T04:44:06;7.10;;;3.10;;
40931;SDS011;36257;46.052;12.540;2023-09-19T04:46:32;6.20;;;3.53;;
40931;SDS011;36257;46.052;12.540;2023-09-19T04:48:58;5.55;;;3.70;;
40931;SDS011;36257;46.052;12.540;2023-09-19T04:51:24;4.57;;;3.20;;
40931;SDS011;36257;46.052;12.540;2023-09-19T04:53:51;3.25;;;2.78;;
40931;SDS011;36257;46.052;12.540;2023-09-19T04:56:17;8.60;;;3.22;;
40931;SDS011;36257;46.052;12.540;2023-09-19T04:58:44;4.82;;;3.08;;
40931;SDS011;36257;46.052;12.540;2023-09-19T05:01:09;4.75;;;3.03;;
40931;SDS011;36257;46.052;12.540;2023-09-19T05:03:37;5.32;;;2.28;;
40931;SDS011;36257;46.052;12.540;2023-09-19T05:06:03;5.38;;;2.60;;
40931;SDS011;36257;46.052;12.540;2023-09-19T05:08:30;7.07;;;2.15;;
40931;SDS011;36257;46.052;12.540;2023-09-19T05:10:55;3.70;;;2.20;;
40931;SDS011;36257;46.052;12.540;2023-09-19T05:13:21;6.68;;;2.05;;
40931;SDS011;36257;46.052;12.540;2023-09-19T05:15:49;5.13;;;2.42;;
40931;SDS011;36257;46.052;12.540;2023-09-19T05:18:18;4.28;;;2.25;;
40931;SDS011;36257;46.052;12.540;2023-09-19T05:20:43;6.03;;;2.70;;
40931;SDS011;36257;46.052;12.540;2023-09-19T05:23:09;4.47;;;2.92;;
40931;SDS011;36257;46.052;12.540;2023-09-19T05:25:38;7.90;;;3.50;;
40931;SDS011;36257;46.052;12.540;2023-09-19T05:28:08;7.32;;;3.42;;
40931;SDS011;36257;46.052;12.540;2023-09-19T05:30:36;7.95;;;3.58;;
40931;SDS011;36257;46.052;12.540;2023-09-19T05:33:03;5.60;;;3.53;;
40931;SDS011;36257;46.052;12.540;2023-09-19T05:35:30;9.25;;;3.70;;
40931;SDS011;36257;46.052;12.540;2023-09-19T05:37:56;4.82;;;2.75;;
40931;SDS011;36257;46.052;12.540;2023-09-19T05:40:23;7.47;;;3.03;;
40931;SDS011;36257;46.052;12.540;2023-09-19T05:42:49;3.72;;;2.65;;
40931;SDS011;36257;46.052;12.540;2023-09-19T05:45:15;8.00;;;2.95;;
40931;SDS011;36257;46.052;12.540;2023-09-19T05:47:47;3.83;;;2.70;;
40931;SDS011;36257;46.052;12.540;2023-09-19T05:50:17;5.10;;;2.60;;
40931;SDS011;36257;46.052;12.540;2023-09-19T05:52:43;5.47;;;2.67;;
40931;SDS011;36257;46.052;12.540;2023-09-19T05:55:17;5.63;;;2.92;;
40931;SDS011;36257;46.052;12.540;2023-09-19T05:57:43;4.30;;;2.60;;
40931;SDS011;36257;46.052;12.540;2023-09-19T06:00:08;3.38;;;2.92;;
40931;SDS011;36257;46.052;12.540;2023-09-19T06:02:36;6.95;;;3.10;;
40931;SDS011;36257;46.052;12.540;2023-09-19T06:05:05;8.02;;;3.53;;
40931;SDS011;36257;46.052;12.540;2023-09-19T06:07:34;5.70;;;2.72;;
40931;SDS011;36257;46.052;12.540;2023-09-19T06:10:01;6.60;;;2.97;;
40931;SDS011;36257;46.052;12.540;2023-09-19T06:12:32;5.53;;;2.65;;
40931;SDS011;36257;46.052;12.540;2023-09-19T06:15:02;6.55;;;2.85;;
40931;SDS011;36257;46.052;12.540;2023-09-19T06:17:30;6.80;;;2.83;;
40931;SDS011;36257;46.052;12.540;2023-09-19T06:19:56;8.00;;;3.13;;
40931;SDS011;36257;46.052;12.540;2023-09-19T06:22:21;5.38;;;2.90;;
40931;SDS011;36257;46.052;12.540;2023-09-19T06:24:49;9.27;;;3.85;;
40931;SDS011;36257;46.052;12.540;2023-09-19T06:27:15;5.40;;;3.15;;
40931;SDS011;36257;46.052;12.540;2023-09-19T06:29:40;8.80;;;3.38;;
40931;SDS011;36257;46.052;12.540;2023-09-19T06:32:10;8.00;;;3.17;;
40931;SDS011;36257;46.052;12.540;2023-09-19T06:34:36;9.85;;;3.78;;
40931;SDS011;36257;46.052;12.540;2023-09-19T06:37:03;5.88;;;3.45;;
40931;SDS011;36257;46.052;12.540;2023-09-19T06:41:56;7.30;;;3.38;;
40931;SDS011;36257;46.052;12.540;2023-09-19T06:44:23;9.55;;;3.78;;
40931;SDS011;36257;46.052;12.540;2023-09-19T06:46:49;9.30;;;3.80;;
40931;SDS011;36257;46.052;12.540;2023-09-19T06:51:43;6.35;;;3.97;;
40931;SDS011;36257;46.052;12.540;2023-09-19T06:54:09;11.75;;;5.13;;
40931;SDS011;36257;46.052;12.540;2023-09-19T06:56:35;6.88;;;4.10;;
40931;SDS011;36257;46.052;12.540;2023-09-19T06:59:00;8.10;;;4.28;;
40931;SDS011;36257;46.052;12.540;2023-09-19T07:01:27;11.77;;;5.22;;
40931;SDS011;36257;46.052;12.540;2023-09-19T07:03:53;9.93;;;5.38;;
40931;SDS011;36257;46.052;12.540;2023-09-19T07:06:19;6.55;;;3.70;;
40931;SDS011;36257;46.052;12.540;2023-09-19T07:08:45;5.70;;;4.35;;
40931;SDS011;36257;46.052;12.540;2023-09-19T07:11:11;7.50;;;3.85;;
40931;SDS011;36257;46.052;12.540;2023-09-19T07:13:37;5.30;;;3.90;;
40931;SDS011;36257;46.052;12.540;2023-09-19T07:16:04;8.70;;;4.13;;
40931;SDS011;36257;46.052;12.540;2023-09-19T07:18:29;7.78;;;3.80;;
40931;SDS011;36257;46.052;12.540;2023-09-19T07:20:57;8.55;;;3.55;;
40931;SDS011;36257;46.052;12.540;2023-09-19T07:23:26;6.03;;;2.85;;
40931;SDS011;36257;46.052;12.540;2023-09-19T07:25:52;4.43;;;3.35;;
40931;SDS011;36257;46.052;12.540;2023-09-19T07:28:21;8.38;;;3.50;;
40931;SDS011;36257;46.052;12.540;2023-09-19T07:30:47;8.95;;;3.78;;
40931;SDS011;36257;46.052;12.540;2023-09-19T07:33:13;5.57;;;3.47;;
40931;SDS011;36257;46.052;12.540;2023-09-19T07:35:39;6.05;;;3.30;;
40931;SDS011;36257;46.052;12.540;2023-09-19T07:38:05;6.47;;;3.20;;
40931;SDS011;36257;46.052;12.540;2023-09-19T07:40:31;7.32;;;3.05;;
40931;SDS011;36257;46.052;12.540;2023-09-19T07:42:57;5.68;;;2.50;;
40931;SDS011;36257;46.052;12.540;2023-09-19T07:45:26;8.77;;;2.55;;
40931;SDS011;36257;46.052;12.540;2023-09-19T07:47:58;4.95;;;2.67;;
40931;SDS011;36257;46.052;12.540;2023-09-19T07:50:29;5.38;;;2.63;;
40931;SDS011;36257;46.052;12.540;2023-09-19T07:52:54;8.10;;;2.85;;
40931;SDS011;36257;46.052;12.540;2023-09-19T07:55:21;4.53;;;3.45;;
40931;SDS011;36257;46.052;12.540;2023-09-19T07:57:50;8.57;;;3.95;;
40931;SDS011;36257;46.052;12.540;2023-09-19T08:00:16;14.95;;;4.22;;
40931;SDS011;36257;46.052;12.540;2023-09-19T08:02:42;10.90;;;4.45;;
40931;SDS011;36257;46.052;12.540;2023-09-19T08:05:08;9.82;;;4.00;;
40931;SDS011;36257;46.052;12.540;2023-09-19T08:07:38;10.90;;;4.20;;
40931;SDS011;36257;46.052;12.540;2023-09-19T08:10:05;10.23;;;4.40;;
40931;SDS011;36257;46.052;12.540;2023-09-19T08:12:42;11.98;;;4.15;;
40931;SDS011;36257;46.052;12.540;2023-09-19T08:15:12;9.50;;;3.95;;
40931;SDS011;36257;46.052;12.540;2023-09-19T08:17:42;13.90;;;4.57;;
40931;SDS011;36257;46.052;12.540;2023-09-19T08:20:09;8.63;;;3.90;;
40931;SDS011;36257;46.052;12.540;2023-09-19T08:25:18;9.88;;;3.88;;
40931;SDS011;36257;46.052;12.540;2023-09-19T08:27:44;10.50;;;4.13;;
40931;SDS011;36257;46.052;12.540;2023-09-19T08:30:21;10.88;;;5.03;;
40931;SDS011;36257;46.052;12.540;2023-09-19T08:32:49;9.65;;;4.40;;
40931;SDS011;36257;46.052;12.540;2023-09-19T08:35:15;11.87;;;3.63;;
40931;SDS011;36257;46.052;12.540;2023-09-19T08:37:42;9.98;;;3.60;;
40931;SDS011;36257;46.052;12.540;2023-09-19T08:40:10;11.05;;;4.82;;
40931;SDS011;36257;46.052;12.540;2023-09-19T08:42:50;11.00;;;3.83;;
40931;SDS011;36257;46.052;12.540;2023-09-19T08:45:19;9.13;;;4.80;;
40931;SDS011;36257;46.052;12.540;2023-09-19T08:47:46;11.45;;;4.68;;
40931;SDS011;36257;46.052;12.540;2023-09-19T08:50:27;11.65;;;4.10;;
40931;SDS011;36257;46.052;12.540;2023-09-19T08:52:55;9.18;;;3.35;;
40931;SDS011;36257;46.052;12.540;2023-09-19T08:55:23;15.90;;;3.80;;
40931;SDS011;36257;46.052;12.540;2023-09-19T08:57:53;10.82;;;4.07;;
40931;SDS011;36257;46.052;12.540;2023-09-19T09:00:26;15.98;;;4.43;;
40931;SDS011;36257;46.052;12.540;2023-09-19T09:02:53;10.77;;;3.42;;
40931;SDS011;36257;46.052;12.540;2023-09-19T09:05:21;12.88;;;4.60;;
40931;SDS011;36257;46.052;12.540;2023-09-19T09:07:51;12.38;;;5.28;;
40931;SDS011;36257;46.052;12.540;2023-09-19T09:10:20;15.23;;;4.72;;
40931;SDS011;36257;46.052;12.540;2023-09-19T09:12:48;14.50;;;5.18;;
40931;SDS011;36257;46.052;12.540;2023-09-19T09:15:20;15.60;;;4.68;;
40931;SDS011;36257;46.052;12.540;2023-09-19T09:17:48;16.42;;;5.13;;
40931;SDS011;36257;46.052;12.540;2023-09-19T09:20:15;14.85;;;5.05;;
40931;SDS011;36257;46.052;12.540;2023-09-19T09:22:54;16.30;;;4.28;;
40931;SDS011;36257;46.052;12.540;2023-09-19T09:25:23;16.10;;;4.60;;
40931;SDS011;36257;46.052;12.540;2023-09-19T09:28:18;20.77;;;4.72;;
40931;SDS011;36257;46.052;12.540;2023-09-19T09:30:45;13.93;;;4.38;;
40931;SDS011;36257;46.052;12.540;2023-09-19T09:33:12;19.55;;;5.32;;
40931;SDS011;36257;46.052;12.540;2023-09-19T09:35:50;18.13;;;4.63;;
40931;SDS011;36257;46.052;12.540;2023-09-19T09:38:23;20.13;;;4.53;;
40931;SDS011;36257;46.052;12.540;2023-09-19T09:40:53;21.80;;;4.55;;
40931;SDS011;36257;46.052;12.540;2023-09-19T09:43:32;15.70;;;5.03;;
40931;SDS011;36257;46.052;12.540;2023-09-19T09:51:37;11.48;;;4.13;;
40931;SDS011;36257;46.052;12.540;2023-09-19T09:54:14;15.97;;;4.27;;
40931;SDS011;36257;46.052;12.540;2023-09-19T09:56:57;18.55;;;4.63;;
40931;SDS011;36257;46.052;12.540;2023-09-19T09:59:48;12.00;;;3.83;;
40931;SDS011;36257;46.052;12.540;2023-09-19T10:02:25;13.93;;;4.65;;
40931;SDS011;36257;46.052;12.540;2023-09-19T10:04:57;15.98;;;3.83;;
40931;SDS011;36257;46.052;12.540;2023-09-19T10:07:28;15.40;;;4.28;;
40931;SDS011;36257;46.052;12.540;2023-09-19T10:10:04;11.88;;;3.47;;
40931;SDS011;36257;46.052;12.540;2023-09-19T10:12:46;13.02;;;3.97;;
40931;SDS011;36257;46.052;12.540;2023-09-19T10:17:45;12.32;;;4.07;;
40931;SDS011;36257;46.052;12.540;2023-09-19T10:20:15;13.68;;;4.28;;
40931;SDS011;36257;46.052;12.540;2023-09-19T10:22:57;16.95;;;4.57;;
40931;SDS011;36257;46.052;12.540;2023-09-19T10:25:25;17.98;;;4.70;;
40931;SDS011;36257;46.052;12.540;2023-09-19T10:27:54;14.18;;;4.78;;
40931;SDS011;36257;46.052;12.540;2023-09-19T10:30:22;14.00;;;4.57;;
40931;SDS011;36257;46.052;12.540;2023-09-19T10:35:25;18.90;;;3.95;;
40931;SDS011;36257;46.052;12.540;2023-09-19T10:37:51;12.57;;;4.47;;
40931;SDS011;36257;46.052;12.540;2023-09-19T10:40:19;18.67;;;4.93;;
40931;SDS011;36257;46.052;12.540;2023-09-19T10:42:51;15.00;;;4.20;;
40931;SDS011;36257;46.052;12.540;2023-09-19T10:45:18;12.85;;;4.28;;
40931;SDS011;36257;46.052;12.540;2023-09-19T10:47:45;14.43;;;4.10;;
40931;SDS011;36257;46.052;12.540;2023-09-19T10:50:19;13.02;;;4.10;;
40931;SDS011;36257;46.052;12.540;2023-09-19T10:52:48;18.17;;;4.95;;
40931;SDS011;36257;46.052;12.540;2023-09-19T10:55:23;15.00;;;5.07;;
40931;SDS011;36257;46.052;12.540;2023-09-19T10:57:50;13.32;;;5.15;;
40931;SDS011;36257;46.052;12.540;2023-09-19T11:00:17;10.45;;;3.90;;
40931;SDS011;36257;46.052;12.540;2023-09-19T11:06:05;17.60;;;4.75;;
40931;SDS011;36257;46.052;12.540;2023-09-19T11:08:57;21.85;;;4.75;;
40931;SDS011;36257;46.052;12.540;2023-09-19T11:11:41;13.18;;;3.95;;
40931;SDS011;36257;46.052;12.540;2023-09-19T11:17:49;13.52;;;4.18;;
40931;SDS011;36257;46.052;12.540;2023-09-19T11:30:52;13.90;;;4.35;;
40931;SDS011;36257;46.052;12.540;2023-09-19T11:33:20;15.88;;;4.47;;
40931;SDS011;36257;46.052;12.540;2023-09-19T11:36:07;11.82;;;4.22;;
40931;SDS011;36257;46.052;12.540;2023-09-19T11:46:30;18.55;;;5.22;;
40931;SDS011;36257;46.052;12.540;2023-09-19T11:49:07;16.52;;;4.90;;
40931;SDS011;36257;46.052;12.540;2023-09-19T11:51:41;13.40;;;4.72;;
40931;SDS011;36257;46.052;12.540;2023-09-19T11:54:11;17.65;;;4.35;;
40931;SDS011;36257;46.052;12.540;2023-09-19T11:56:46;13.52;;;4.47;;
40931;SDS011;36257;46.052;12.540;2023-09-19T11:59:22;13.50;;;4.40;;
40931;SDS011;36257;46.052;12.540;2023-09-19T12:01:53;19.90;;;4.07;;
40931;SDS011;36257;46.052;12.540;2023-09-19T12:04:35;20.35;;;4.53;;
40931;SDS011;36257;46.052;12.540;2023-09-19T12:07:05;17.08;;;4.75;;
40931;SDS011;36257;46.052;12.540;2023-09-19T12:09:37;16.85;;;5.28;;
40931;SDS011;36257;46.052;12.540;2023-09-19T12:12:05;21.58;;;6.15;;
40931;SDS011;36257;46.052;12.540;2023-09-19T12:14:31;25.90;;;7.53;;
40931;SDS011;36257;46.052;12.540;2023-09-19T12:16:58;21.70;;;7.77;;
40931;SDS011;36257;46.052;12.540;2023-09-19T12:19:26;24.13;;;7.25;;
40931;SDS011;36257;46.052;12.540;2023-09-19T12:21:56;21.42;;;7.20;;
40931;SDS011;36257;46.052;12.540;2023-09-19T12:24:34;24.50;;;7.20;;
40931;SDS011;36257;46.052;12.540;2023-09-19T12:27:06;21.10;;;7.72;;
40931;SDS011;36257;46.052;12.540;2023-09-19T12:29:41;17.75;;;7.32;;
40931;SDS011;36257;46.052;12.540;2023-09-19T12:32:15;24.23;;;7.05;;
40931;SDS011;36257;46.052;12.540;2023-09-19T12:34:42;10.75;;;4.53;;
40931;SDS011;36257;46.052;12.540;2023-09-19T12:39:41;12.52;;;4.63;;
40931;SDS011;36257;46.052;12.540;2023-09-19T12:42:09;14.32;;;4.72;;
40931;SDS011;36257;46.052;12.540;2023-09-19T12:44:40;13.30;;;4.68;;
40931;SDS011;36257;46.052;12.540;2023-09-19T12:47:11;22.17;;;5.70;;
40931;SDS011;36257;46.052;12.540;2023-09-19T12:52:37;13.52;;;6.30;;
40931;SDS011;36257;46.052;12.540;2023-09-19T12:55:03;16.90;;;5.93;;
40931;SDS011;36257;46.052;12.540;2023-09-19T12:57:31;15.55;;;6.18;;
40931;SDS011;36257;46.052;12.540;2023-09-19T13:00:00;14.32;;;4.63;;
40931;SDS011;36257;46.052;12.540;2023-09-19T13:02:27;10.63;;;4.18;;
40931;SDS011;36257;46.052;12.540;2023-09-19T13:04:53;12.07;;;4.03;;
40931;SDS011;36257;46.052;12.540;2023-09-19T13:10:11;10.85;;;4.18;;
40931;SDS011;36257;46.052;12.540;2023-09-19T13:12:40;13.95;;;4.25;;
40931;SDS011;36257;46.052;12.540;2023-09-19T13:15:12;13.20;;;4.13;;
40931;SDS011;36257;46.052;12.540;2023-09-19T13:17:44;10.27;;;3.45;;
40931;SDS011;36257;46.052;12.540;2023-09-19T13:20:26;19.45;;;4.35;;
40931;SDS011;36257;46.052;12.540;2023-09-19T13:22:57;10.13;;;3.97;;
40931;SDS011;36257;46.052;12.540;2023-09-19T13:25:33;9.83;;;3.67;;
40931;SDS011;36257;46.052;12.540;2023-09-19T13:28:00;8.30;;;3.47;;
40931;SDS011;36257;46.052;12.540;2023-09-19T13:30:29;9.23;;;3.22;;
40931;SDS011;36257;46.052;12.540;2023-09-19T13:33:06;9.35;;;3.55;;
40931;SDS011;36257;46.052;12.540;2023-09-19T13:35:34;9.57;;;3.97;;
40931;SDS011;36257;46.052;12.540;2023-09-19T13:38:03;11.05;;;3.50;;
40931;SDS011;36257;46.052;12.540;2023-09-19T13:40:29;9.65;;;3.38;;
40931;SDS011;36257;46.052;12.540;2023-09-19T13:43:00;9.77;;;3.22;;
40931;SDS011;36257;46.052;12.540;2023-09-19T13:45:26;11.95;;;3.22;;
40931;SDS011;36257;46.052;12.540;2023-09-19T13:47:55;10.15;;;2.92;;
40931;SDS011;36257;46.052;12.540;2023-09-19T13:50:21;9.40;;;2.97;;
40931;SDS011;36257;46.052;12.540;2023-09-19T13:52:49;8.63;;;2.80;;
40931;SDS011;36257;46.052;12.540;2023-09-19T13:55:18;12.27;;;3.00;;
40931;SDS011;36257;46.052;12.540;2023-09-19T13:57:47;12.52;;;4.30;;
40931;SDS011;36257;46.052;12.540;2023-09-19T14:00:19;14.38;;;3.67;;
40931;SDS011;36257;46.052;12.540;2023-09-19T14:02:45;8.63;;;3.00;;
40931;SDS011;36257;46.052;12.540;2023-09-19T14:05:12;8.68;;;3.00;;
40931;SDS011;36257;46.052;12.540;2023-09-19T14:07:40;8.95;;;3.50;;
40931;SDS011;36257;46.052;12.540;2023-09-19T14:10:09;8.00;;;2.50;;
40931;SDS011;36257;46.052;12.540;2023-09-19T14:12:36;10.45;;;3.47;;
40931;SDS011;36257;46.052;12.540;2023-09-19T14:15:02;8.07;;;2.90;;
40931;SDS011;36257;46.052;12.540;2023-09-19T14:17:29;6.40;;;2.17;;
40931;SDS011;36257;46.052;12.540;2023-09-19T14:19:55;7.82;;;2.70;;
40931;SDS011;36257;46.052;12.540;2023-09-19T14:22:20;6.78;;;2.88;;
40931;SDS011;36257;46.052;12.540;2023-09-19T14:24:46;13.07;;;3.20;;
40931;SDS011;36257;46.052;12.540;2023-09-19T14:27:12;9.30;;;3.33;;
40931;SDS011;36257;46.052;12.540;2023-09-19T14:29:38;3.85;;;2.58;;
40931;SDS011;36257;46.052;12.540;2023-09-19T14:32:04;7.82;;;2.90;;
40931;SDS011;36257;46.052;12.540;2023-09-19T14:34:30;9.00;;;2.60;;
40931;SDS011;36257;46.052;12.540;2023-09-19T14:36:56;6.90;;;2.33;;
40931;SDS011;36257;46.052;12.540;2023-09-19T14:39:22;9.73;;;3.05;;
40931;SDS011;36257;46.052;12.540;2023-09-19T14:41:48;10.70;;;2.95;;
40931;SDS011;36257;46.052;12.540;2023-09-19T14:44:14;9.02;;;3.10;;
40931;SDS011;36257;46.052;12.540;2023-09-19T14:46:43;9.60;;;3.05;;
40931;SDS011;36257;46.052;12.540;2023-09-19T14:49:10;10.43;;;2.88;;
40931;SDS011;36257;46.052;12.540;2023-09-19T14:51:37;10.43;;;3.50;;
40931;SDS011;36257;46.052;12.540;2023-09-19T14:54:05;6.43;;;2.55;;
40931;SDS011;36257;46.052;12.540;2023-09-19T14:56:32;6.18;;;2.38;;
40931;SDS011;36257;46.052;12.540;2023-09-19T14:58:58;10.02;;;3.08;;
40931;SDS011;36257;46.052;12.540;2023-09-19T15:01:24;10.27;;;3.03;;
40931;SDS011;36257;46.052;12.540;2023-09-19T15:03:50;6.63;;;2.70;;
40931;SDS011;36257;46.052;12.540;2023-09-19T15:06:15;10.35;;;2.83;;
40931;SDS011;36257;46.052;12.540;2023-09-19T15:08:45;6.53;;;2.08;;
40931;SDS011;36257;46.052;12.540;2023-09-19T15:11:15;9.32;;;2.38;;
40931;SDS011;36257;46.052;12.540;2023-09-19T15:13:42;5.63;;;2.33;;
40931;SDS011;36257;46.052;12.540;2023-09-19T15:16:09;9.07;;;2.88;;
40931;SDS011;36257;46.052;12.540;2023-09-19T15:18:36;10.43;;;3.08;;
40931;SDS011;36257;46.052;12.540;2023-09-19T15:21:20;7.65;;;2.85;;
40931;SDS011;36257;46.052;12.540;2023-09-19T15:23:46;6.30;;;2.28;;
40931;SDS011;36257;46.052;12.540;2023-09-19T15:26:12;7.43;;;1.73;;
40931;SDS011;36257;46.052;12.540;2023-09-19T15:28:42;4.85;;;1.98;;
40931;SDS011;36257;46.052;12.540;2023-09-19T15:31:09;9.23;;;1.92;;
40931;SDS011;36257;46.052;12.540;2023-09-19T15:33:36;8.57;;;2.10;;
40931;SDS011;36257;46.052;12.540;2023-09-19T15:38:28;4.68;;;1.40;;
40931;SDS011;36257;46.052;12.540;2023-09-19T15:40:54;6.22;;;1.48;;
40931;SDS011;36257;46.052;12.540;2023-09-19T15:43:20;4.07;;;1.42;;
40931;SDS011;36257;46.052;12.540;2023-09-19T15:45:46;7.10;;;1.63;;
40931;SDS011;36257;46.052;12.540;2023-09-19T15:48:14;3.65;;;1.55;;
40931;SDS011;36257;46.052;12.540;2023-09-19T15:50:40;3.35;;;1.50;;